Terminal Aerodrome Forecast
Issued by NWS

Home | Current Version | Previous Version | Text Only | Print | Product List | Glossary On
Versions: 1 2 3 4 5 6 7 8 9 10 11 12 13 14 15 16 17 18 19 20
533
FTUS41 KCAR 062337
TAFFVE
TAF
KFVE 062337Z 0700/0724 20010KT P6SM VCSH OVC040
     FM070300 21012KT P6SM VCSH OVC025
     FM070800 24012KT 2SM -SHSN OVC020
     FM071100 29012G20KT 3SM -SHSN OVC020
     FM071400 31012G22KT P6SM VCSH BKN035
     FM071800 33012KT P6SM SCT040=

USA.gov is the U.S. government's official web portal to all federal, state and local government web resources and services.